createdAt,value
2022-08-05T00:00:18.971Z,3.80
2022-08-05T00:02:51.486Z,3.80
2022-08-05T00:06:02.817Z,4.20
2022-08-05T00:08:34.773Z,4.27
2022-08-05T00:11:00.932Z,4.17
2022-08-05T00:13:38.981Z,4.00
2022-08-05T00:16:12.537Z,4.50
2022-08-05T00:18:42.172Z,4.10
2022-08-05T00:21:10.809Z,4.33
2022-08-05T00:23:46.164Z,4.00
2022-08-05T00:26:16.577Z,4.43
2022-08-05T00:28:46.120Z,4.50
2022-08-05T00:31:14.318Z,4.23
2022-08-05T00:34:55.133Z,4.03
2022-08-05T00:37:11.419Z,4.60
2022-08-05T00:39:18.694Z,4.17
2022-08-05T00:41:54.996Z,4.10
2022-08-05T00:44:30.421Z,4.10
2022-08-05T00:47:02.080Z,4.27
2022-08-05T00:49:44.463Z,4.23
2022-08-05T00:52:28.332Z,4.87
2022-08-05T00:54:57.203Z,4.37
2022-08-05T00:57:38.445Z,4.77
2022-08-05T01:00:16.990Z,4.60
2022-08-05T01:02:47.051Z,4.03
2022-08-05T01:05:18.492Z,4.40
2022-08-05T01:08:30.292Z,4.00
2022-08-05T01:10:39.852Z,4.30
2022-08-05T01:13:27.475Z,4.87
2022-08-05T01:16:20.922Z,4.60
2022-08-05T01:18:56.616Z,4.37
2022-08-05T01:21:53.902Z,4.73
2022-08-05T01:24:37.140Z,4.87
2022-08-05T01:27:17.857Z,5.17
2022-08-05T01:29:51.866Z,5.17
2022-08-05T01:32:24.080Z,4.90
2022-08-05T01:34:58.996Z,4.43
2022-08-05T01:37:33.849Z,4.27
2022-08-05T01:40:07.686Z,4.57
2022-08-05T01:42:38.032Z,4.47
2022-08-05T01:45:11.286Z,4.80
2022-08-05T01:47:43.490Z,4.40
2022-08-05T01:50:15.538Z,5.23
2022-08-05T01:52:49.734Z,4.40
2022-08-05T01:55:19.364Z,4.50
2022-08-05T01:58:09.879Z,4.60
2022-08-05T02:00:44.365Z,4.80
2022-08-05T02:03:24.194Z,5.00
2022-08-05T02:05:59.648Z,4.87
2022-08-05T02:08:29.722Z,4.90
2022-08-05T02:11:03.893Z,4.30
2022-08-05T02:13:53.216Z,4.80
2022-08-05T02:16:29.809Z,4.73
2022-08-05T02:19:02.735Z,4.60
2022-08-05T02:21:43.245Z,4.97
2022-08-05T02:24:19.207Z,4.30
2022-08-05T02:26:54.858Z,4.60
2022-08-05T02:29:58.153Z,5.70
2022-08-05T02:32:23.954Z,5.90
2022-08-05T02:34:58.881Z,4.53
2022-08-05T02:37:32.173Z,4.60
2022-08-05T02:40:00.927Z,5.67
2022-08-05T02:42:34.276Z,4.57
2022-08-05T02:45:05.022Z,4.53
2022-08-05T02:48:06.452Z,4.90
2022-08-05T02:50:24.682Z,4.30
2022-08-05T02:52:53.713Z,5.00
2022-08-05T02:55:54.833Z,4.90
2022-08-05T02:58:13.358Z,4.57
2022-08-05T03:00:41.838Z,5.00
2022-08-05T03:03:16.499Z,4.80
2022-08-05T03:06:56.475Z,5.03
2022-08-05T03:08:33.761Z,5.10
2022-08-05T03:11:54.443Z,4.80
2022-08-05T03:13:51.694Z,4.83
2022-08-05T03:16:31.833Z,5.00
2022-08-05T03:19:04.246Z,4.87
2022-08-05T03:21:49.296Z,4.73
2022-08-05T03:24:23.613Z,4.93
2022-08-05T03:26:58.799Z,5.27
2022-08-05T03:29:44.745Z,5.07
2022-08-05T03:32:17.180Z,5.13
2022-08-05T03:34:50.474Z,5.30
2022-08-05T03:37:20.846Z,5.33
2022-08-05T03:40:01.843Z,6.13
2022-08-05T03:42:41.430Z,5.40
2022-08-05T03:45:21.846Z,5.60
2022-08-05T03:47:51.225Z,5.30
2022-08-05T03:50:21.537Z,5.60
2022-08-05T03:55:53.359Z,6.00
2022-08-05T03:56:05.120Z,6.27
2022-08-05T03:58:37.997Z,5.67
2022-08-05T04:01:11.183Z,5.73
2022-08-05T04:04:09.242Z,6.33
2022-08-05T04:06:34.762Z,5.93
2022-08-05T04:09:06.006Z,6.50
2022-08-05T04:11:47.483Z,6.97
2022-08-05T04:14:19.718Z,6.33
2022-08-05T04:17:00.701Z,6.60
2022-08-05T04:19:29.682Z,6.40
2022-08-05T04:22:08.179Z,6.23
2022-08-05T04:24:44.425Z,6.43
2022-08-05T04:27:41.586Z,6.50
2022-08-05T04:30:10.415Z,6.70
2022-08-05T04:32:39.069Z,6.70
2022-08-05T04:35:13.517Z,6.83
2022-08-05T04:38:00.963Z,6.43
2022-08-05T04:40:34.617Z,6.43
2022-08-05T04:43:03.021Z,6.20
2022-08-05T04:45:48.231Z,6.90
2022-08-05T04:48:27.684Z,7.43
2022-08-05T04:51:03.116Z,6.50
2022-08-05T04:53:39.514Z,6.43
2022-08-05T04:56:33.577Z,6.90
2022-08-05T04:58:57.234Z,7.17
2022-08-05T05:02:04.053Z,7.50
2022-08-05T05:04:13.681Z,7.80
2022-08-05T05:06:49.222Z,7.17
2022-08-05T05:09:22.010Z,7.07
2022-08-05T05:11:53.207Z,7.43
2022-08-05T05:14:31.413Z,6.40
2022-08-05T05:17:00.518Z,7.40
2022-08-05T05:19:36.975Z,7.40
2022-08-05T05:22:23.489Z,7.20
2022-08-05T05:24:57.732Z,8.07
2022-08-05T05:27:44.231Z,8.23
2022-08-05T05:30:28.745Z,7.90
2022-08-05T05:33:08.771Z,8.23
2022-08-05T05:35:44.848Z,7.80
2022-08-05T05:38:14.199Z,7.00
2022-08-05T05:40:47.924Z,6.97
2022-08-05T05:43:22.432Z,7.43
2022-08-05T05:46:13.657Z,6.97
2022-08-05T05:48:44.820Z,7.67
2022-08-05T05:51:19.696Z,7.07
2022-08-05T05:53:57.775Z,11.70
2022-08-05T05:56:32.984Z,8.30
2022-08-05T05:59:05.500Z,8.57
2022-08-05T06:01:37.578Z,8.83
2022-08-05T06:04:08.198Z,8.50
2022-08-05T06:06:41.782Z,8.67
2022-08-05T06:09:17.094Z,7.93
2022-08-05T06:12:01.674Z,7.87
2022-08-05T06:14:31.136Z,6.07
2022-08-05T06:16:59.678Z,5.70
2022-08-05T06:19:34.440Z,5.73
2022-08-05T06:22:03.461Z,5.70
2022-08-05T06:24:31.638Z,5.33
2022-08-05T06:27:01.199Z,5.37
2022-08-05T06:29:46.447Z,5.57
2022-08-05T06:32:26.281Z,5.27
2022-08-05T06:34:58.539Z,5.13
2022-08-05T06:37:56.656Z,4.93
2022-08-05T06:40:18.384Z,5.17
2022-08-05T06:42:51.998Z,5.33
2022-08-05T06:46:03.412Z,4.90
2022-08-05T06:48:37.044Z,5.07
2022-08-05T06:51:02.310Z,4.70
2022-08-05T06:53:39.320Z,4.73
2022-08-05T06:56:11.666Z,4.70
2022-08-05T06:58:55.732Z,4.23
2022-08-05T07:01:32.107Z,4.37
2022-08-05T07:04:03.184Z,4.93
2022-08-05T07:06:31.892Z,5.43
2022-08-05T07:09:04.075Z,5.70
2022-08-05T07:11:37.006Z,5.87
2022-08-05T07:14:29.252Z,5.57
2022-08-05T07:17:58.472Z,5.40
2022-08-05T07:22:37.524Z,4.90
2022-08-05T07:25:23.191Z,4.73
2022-08-05T07:27:58.072Z,4.37
2022-08-05T07:30:38.733Z,4.60
2022-08-05T07:33:15.752Z,4.80
2022-08-05T07:36:04.525Z,4.30
2022-08-05T07:38:43.140Z,4.50
2022-08-05T07:42:08.761Z,4.60
2022-08-05T07:44:04.764Z,4.60
2022-08-05T07:46:34.601Z,4.53
2022-08-05T07:49:06.214Z,4.40
2022-08-05T07:51:48.555Z,4.37
2022-08-05T07:54:31.286Z,4.57
2022-08-05T07:57:17.611Z,4.50
2022-08-05T07:59:50.338Z,3.80
2022-08-05T08:02:26.844Z,5.00
2022-08-05T08:04:59.907Z,5.20
2022-08-05T08:07:29.174Z,5.40
2022-08-05T08:10:08.311Z,5.00
2022-08-05T08:12:49.588Z,5.40
2022-08-05T08:15:18.059Z,5.43
2022-08-05T08:18:13.807Z,5.27
2022-08-05T08:21:02.364Z,5.20
2022-08-05T08:24:01.192Z,5.10
2022-08-05T08:26:29.546Z,5.07
2022-08-05T08:29:22.266Z,4.70
2022-08-05T08:31:47.304Z,4.90
2022-08-05T08:34:18.640Z,4.80
2022-08-05T08:36:51.871Z,4.67
2022-08-05T08:39:24.686Z,5.13
2022-08-05T08:41:59.894Z,4.73
2022-08-05T08:45:24.975Z,4.80
2022-08-05T08:48:07.685Z,4.83
2022-08-05T08:50:29.988Z,4.80
2022-08-05T08:53:08.049Z,5.30
2022-08-05T08:56:04.997Z,5.33
2022-08-05T08:58:43.098Z,4.40
2022-08-05T09:01:15.776Z,5.17
2022-08-05T09:03:48.107Z,4.70
2022-08-05T09:06:21.418Z,4.90
2022-08-05T09:08:52.270Z,5.17
2022-08-05T09:11:53.354Z,5.30
2022-08-05T09:14:54.289Z,5.00
2022-08-05T09:16:57.714Z,4.97
2022-08-05T09:19:28.025Z,4.73
2022-08-05T09:22:23.341Z,5.33
2022-08-05T09:25:00.510Z,5.17
2022-08-05T09:28:04.891Z,5.00
2022-08-05T09:30:24.517Z,4.83
2022-08-05T09:32:52.971Z,4.83
2022-08-05T09:35:27.140Z,4.50
2022-08-05T09:38:16.907Z,4.32
2022-08-05T09:40:52.545Z,4.67
2022-08-05T09:43:41.043Z,4.27
2022-08-05T09:46:27.630Z,4.33
2022-08-05T09:49:07.058Z,3.97
2022-08-05T09:51:40.026Z,4.00
2022-08-05T09:54:11.468Z,3.67
2022-08-05T09:56:40.236Z,4.27
2022-08-05T09:59:19.764Z,4.20
2022-08-05T10:01:48.382Z,3.60
2022-08-05T10:04:36.307Z,4.27
2022-08-05T10:07:20.541Z,4.17
2022-08-05T10:10:13.815Z,3.73
2022-08-05T10:12:49.221Z,4.07
2022-08-05T10:15:25.967Z,3.60
2022-08-05T10:18:07.465Z,3.93
2022-08-05T10:20:37.646Z,4.00
2022-08-05T10:23:08.930Z,4.17
2022-08-05T10:25:56.886Z,3.70
2022-08-05T10:28:29.166Z,3.90
2022-08-05T10:32:47.911Z,3.67
2022-08-05T10:33:54.212Z,3.47
2022-08-05T10:36:26.029Z,4.27
2022-08-05T10:39:02.529Z,3.70
2022-08-05T10:41:47.104Z,4.03
2022-08-05T10:44:19.666Z,3.80
2022-08-05T10:46:50.923Z,3.53
2022-08-05T10:49:27.420Z,3.90
2022-08-05T10:52:04.999Z,3.67
2022-08-05T10:54:56.710Z,3.77
2022-08-05T10:57:32.015Z,3.50
2022-08-05T11:00:19.688Z,3.60
2022-08-05T11:03:25.119Z,3.50
2022-08-05T11:06:05.125Z,3.60
2022-08-05T11:08:38.212Z,3.50
2022-08-05T11:11:44.629Z,3.53
2022-08-05T11:14:49.421Z,3.37
2022-08-05T11:17:59.783Z,3.40
2022-08-05T11:20:44.591Z,3.10
2022-08-05T11:24:05.020Z,3.47
2022-08-05T11:26:28.886Z,3.30
2022-08-05T11:29:11.709Z,3.60
2022-08-05T11:31:56.417Z,3.40
2022-08-05T11:34:51.420Z,3.07
2022-08-05T11:38:36.792Z,3.30
2022-08-05T11:41:01.325Z,3.47
2022-08-05T11:44:07.040Z,3.40
2022-08-05T11:46:33.214Z,3.40
2022-08-05T11:49:04.064Z,3.10
2022-08-05T11:51:43.971Z,3.33
2022-08-05T11:54:24.495Z,3.40
2022-08-05T11:57:08.196Z,3.17
2022-08-05T11:59:51.303Z,3.40
2022-08-05T12:02:30.718Z,3.30
2022-08-05T12:05:06.745Z,3.30
2022-08-05T12:08:03.732Z,3.50
2022-08-05T12:10:43.549Z,3.53
2022-08-05T12:13:47.713Z,2.90
2022-08-05T12:16:14.797Z,3.20
2022-08-05T12:18:49.489Z,3.20
2022-08-05T12:21:25.006Z,3.10
2022-08-05T12:24:07.351Z,3.00
2022-08-05T12:26:37.040Z,3.50
2022-08-05T12:29:09.553Z,3.00
2022-08-05T12:31:45.942Z,3.27
2022-08-05T12:34:21.224Z,3.07
2022-08-05T12:36:53.358Z,3.42
2022-08-05T12:39:22.202Z,3.10
2022-08-05T12:41:58.044Z,3.00
2022-08-05T12:44:33.431Z,3.10
2022-08-05T12:47:03.692Z,3.70
2022-08-05T12:50:03.630Z,3.20
2022-08-05T12:52:38.823Z,3.20
2022-08-05T12:55:22.174Z,2.80
2022-08-05T12:58:50.804Z,3.20
2022-08-05T13:01:59.783Z,3.03
2022-08-05T13:03:33.256Z,3.10
2022-08-05T13:06:02.380Z,4.22
2022-08-05T13:08:32.630Z,3.05
2022-08-05T13:11:02.043Z,3.30
2022-08-05T13:14:05.398Z,2.90
2022-08-05T13:16:20.775Z,3.10
2022-08-05T13:18:55.231Z,3.10
2022-08-05T13:21:27.701Z,3.00
2022-08-05T13:23:58.689Z,3.10
2022-08-05T13:26:30.160Z,3.30
2022-08-05T13:28:59.118Z,3.40
2022-08-05T13:32:03.363Z,3.03
2022-08-05T13:34:22.202Z,3.08
2022-08-05T13:36:53.494Z,3.47
2022-08-05T13:39:24.581Z,3.00
2022-08-05T13:42:14.442Z,3.60
2022-08-05T13:44:45.915Z,2.95
2022-08-05T13:47:35.008Z,3.13
2022-08-05T13:50:04.519Z,3.17
2022-08-05T13:52:35.671Z,3.25
2022-08-05T13:55:07.367Z,3.38
2022-08-05T13:57:50.936Z,3.17
2022-08-05T14:00:27.708Z,2.90
2022-08-05T14:02:57.093Z,3.15
2022-08-05T14:05:48.118Z,2.95
2022-08-05T14:08:20.341Z,3.28
2022-08-05T14:10:50.960Z,3.00
2022-08-05T14:13:19.018Z,3.60
2022-08-05T14:16:09.087Z,2.85
2022-08-05T14:18:39.476Z,3.35
2022-08-05T14:22:07.257Z,3.20
2022-08-05T14:23:55.910Z,3.40
2022-08-05T14:26:38.711Z,3.13
2022-08-05T14:29:16.641Z,3.70
2022-08-05T14:32:02.979Z,3.35
2022-08-05T14:34:35.207Z,3.22
2022-08-05T14:37:04.542Z,2.95
2022-08-05T14:39:49.311Z,3.30
2022-08-05T14:42:21.776Z,2.83
2022-08-05T14:44:50.340Z,3.15
2022-08-05T14:47:58.455Z,3.40
2022-08-05T14:50:17.775Z,3.28
2022-08-05T14:52:57.500Z,3.38
2022-08-05T14:55:38.597Z,3.13
2022-08-05T14:58:11.946Z,3.20
2022-08-05T15:00:58.187Z,3.08
2022-08-05T15:03:27.215Z,3.10
2022-08-05T15:06:07.425Z,3.20
2022-08-05T15:08:59.580Z,3.17
2022-08-05T15:11:52.593Z,2.92
2022-08-05T15:14:33.183Z,3.38
2022-08-05T15:17:04.302Z,3.88
2022-08-05T15:19:33.010Z,3.58
2022-08-05T15:22:01.774Z,3.22
2022-08-05T15:24:30.098Z,4.05
2022-08-05T15:26:58.972Z,3.50
2022-08-05T15:29:29.787Z,3.42
2022-08-05T15:32:03.065Z,3.67
2022-08-05T15:34:33.533Z,3.58
2022-08-05T15:37:06.086Z,3.80
2022-08-05T15:41:00.430Z,5.10
2022-08-05T15:42:54.835Z,3.25
2022-08-05T15:45:12.727Z,3.67
2022-08-05T15:47:41.312Z,3.60
2022-08-05T15:50:15.130Z,3.38
2022-08-05T15:52:52.694Z,3.90
2022-08-05T15:55:24.945Z,3.70
2022-08-05T15:58:16.360Z,4.10
2022-08-05T16:00:57.135Z,3.78
2022-08-05T16:03:36.607Z,3.28
2022-08-05T16:06:11.228Z,3.85
2022-08-05T16:08:39.851Z,2.75
2022-08-05T16:11:08.380Z,2.47
2022-08-05T16:13:36.566Z,2.70
2022-08-05T16:16:07.347Z,2.75
2022-08-05T16:18:52.164Z,2.78
2022-08-05T16:21:58.698Z,2.65
2022-08-05T16:24:38.769Z,2.63
2022-08-05T16:26:59.259Z,2.63
2022-08-05T16:29:31.126Z,2.50
2022-08-05T16:32:09.770Z,2.45
2022-08-05T16:34:39.375Z,2.67
2022-08-05T16:38:03.173Z,2.55
2022-08-05T16:40:05.300Z,2.70
2022-08-05T16:42:36.316Z,2.70
2022-08-05T16:46:02.718Z,2.60
2022-08-05T16:47:57.435Z,2.15
2022-08-05T16:50:29.550Z,2.67
2022-08-05T16:53:11.944Z,2.38
2022-08-05T16:55:46.906Z,2.72
2022-08-05T16:58:15.616Z,2.60
2022-08-05T17:00:49.639Z,3.05
2022-08-05T17:03:20.766Z,3.00
2022-08-05T17:05:53.873Z,2.90
2022-08-05T17:08:36.057Z,3.10
2022-08-05T17:11:17.359Z,2.70
2022-08-05T17:13:45.662Z,2.53
2022-08-05T17:16:29.729Z,2.67
2022-08-05T17:19:01.494Z,2.72
2022-08-05T17:21:35.565Z,2.95
2022-08-05T17:24:20.477Z,2.75
2022-08-05T17:26:52.524Z,2.80
2022-08-05T17:29:22.551Z,2.60
2022-08-05T17:32:01.172Z,3.17
2022-08-05T17:34:32.208Z,3.33
2022-08-05T17:37:04.605Z,3.53
2022-08-05T17:39:55.132Z,3.00
2022-08-05T17:42:29.761Z,3.35
2022-08-05T17:45:10.098Z,3.25
2022-08-05T17:47:51.348Z,2.80
2022-08-05T17:50:28.406Z,2.90
2022-08-05T17:52:59.977Z,2.67
2022-08-05T17:55:34.449Z,3.03
2022-08-05T17:58:12.385Z,3.07
2022-08-05T18:00:45.164Z,3.47
2022-08-05T18:03:39.322Z,2.70
2022-08-05T18:06:11.947Z,3.03
2022-08-05T18:08:45.738Z,2.60
2022-08-05T18:11:23.163Z,3.20
2022-08-05T18:13:53.392Z,2.90
2022-08-05T18:16:22.606Z,3.40
2022-08-05T18:18:50.901Z,3.30
2022-08-05T18:21:25.834Z,3.13
2022-08-05T18:23:54.512Z,3.37
2022-08-05T18:26:29.574Z,3.17
2022-08-05T18:30:01.190Z,2.93
2022-08-05T18:32:29.720Z,3.40
2022-08-05T18:34:57.951Z,2.63
2022-08-05T18:37:34.757Z,3.43
2022-08-05T18:41:50.239Z,3.70
2022-08-05T18:42:58.392Z,3.37
2022-08-05T18:45:41.578Z,3.70
2022-08-05T18:48:11.138Z,3.50
2022-08-05T18:50:57.093Z,3.43
2022-08-05T18:53:34.687Z,3.30
2022-08-05T18:56:12.595Z,3.40
2022-08-05T18:58:43.067Z,3.13
2022-08-05T19:01:18.033Z,4.00
2022-08-05T19:03:53.194Z,4.07
2022-08-05T19:06:37.184Z,3.40
2022-08-05T19:09:12.825Z,3.30
2022-08-05T19:12:00.075Z,3.30
2022-08-05T19:14:52.407Z,3.20
2022-08-05T19:17:17.228Z,3.43
2022-08-05T19:19:48.644Z,3.83
2022-08-05T19:22:17.752Z,3.87
2022-08-05T19:24:54.177Z,3.60
2022-08-05T19:27:27.724Z,3.97
2022-08-05T19:29:59.017Z,4.00
2022-08-05T19:32:27.644Z,3.43
2022-08-05T19:34:56.595Z,3.93
2022-08-05T19:37:29.887Z,3.80
2022-08-05T19:40:16.516Z,3.70
2022-08-05T19:43:04.522Z,3.47
2022-08-05T19:45:36.910Z,3.40
2022-08-05T19:48:06.522Z,3.80
2022-08-05T19:50:35.091Z,3.57
2022-08-05T19:53:10.735Z,3.57
2022-08-05T19:56:42.831Z,3.60
2022-08-05T19:59:51.517Z,3.33
2022-08-05T20:02:01.339Z,3.60
2022-08-05T20:04:31.183Z,3.50
2022-08-05T20:06:59.277Z,4.10
2022-08-05T20:09:30.102Z,3.80
2022-08-05T20:12:19.559Z,3.80
2022-08-05T20:14:50.093Z,4.20
2022-08-05T20:17:23.620Z,3.70
2022-08-05T20:19:56.645Z,3.20
2022-08-05T20:22:27.076Z,3.03
2022-08-05T20:24:55.970Z,3.47
2022-08-05T20:27:27.414Z,3.87
2022-08-05T20:30:11.508Z,3.67
2022-08-05T20:32:45.026Z,3.20
2022-08-05T20:35:13.715Z,3.77
2022-08-05T20:38:06.608Z,3.10
2022-08-05T20:40:31.149Z,3.60
2022-08-05T20:43:03.604Z,4.00
2022-08-05T20:45:55.931Z,4.40
2022-08-05T20:48:20.552Z,4.20
2022-08-05T20:50:48.683Z,4.60
2022-08-05T20:53:36.730Z,4.20
2022-08-05T20:56:08.838Z,3.67
2022-08-05T20:58:38.711Z,3.50
2022-08-05T21:01:06.895Z,3.57
2022-08-05T21:03:35.048Z,3.63
2022-08-05T21:06:03.143Z,3.70
2022-08-05T21:08:41.354Z,3.63
2022-08-05T21:11:12.115Z,3.87
2022-08-05T21:13:55.531Z,3.90
2022-08-05T21:16:29.904Z,3.43
2022-08-05T21:19:00.110Z,4.07
2022-08-05T21:21:43.909Z,3.90
2022-08-05T21:24:15.466Z,4.00
2022-08-05T21:26:50.558Z,3.97
2022-08-05T21:29:23.604Z,3.93
2022-08-05T21:31:54.820Z,4.17
2022-08-05T21:34:24.107Z,4.30
2022-08-05T21:36:53.885Z,4.77
2022-08-05T21:39:26.529Z,4.13
2022-08-05T21:42:01.084Z,4.20
2022-08-05T21:44:32.010Z,4.87
2022-08-05T21:47:00.359Z,4.30
2022-08-05T21:49:59.367Z,4.50
2022-08-05T21:52:28.108Z,4.70
2022-08-05T21:54:57.624Z,4.10
2022-08-05T21:57:34.845Z,4.20
2022-08-05T22:00:11.313Z,3.87
2022-08-05T22:02:43.998Z,4.27
2022-08-05T22:05:14.056Z,3.83
2022-08-05T22:08:07.125Z,4.33
2022-08-05T22:10:51.042Z,4.13
2022-08-05T22:14:19.561Z,3.80
2022-08-05T22:16:32.182Z,4.17
2022-08-05T22:18:58.746Z,4.17
2022-08-05T22:21:27.318Z,4.00
2022-08-05T22:24:39.637Z,4.40
2022-08-05T22:27:19.419Z,4.03
2022-08-05T22:29:47.816Z,4.10
2022-08-05T22:32:17.727Z,4.77
2022-08-05T22:34:46.055Z,4.03
2022-08-05T22:37:14.126Z,3.93
2022-08-05T22:39:42.314Z,4.70
2022-08-05T22:42:26.409Z,4.37
2022-08-05T22:44:56.701Z,3.90
2022-08-05T22:47:28.896Z,4.43
2022-08-05T22:50:19.698Z,4.13
2022-08-05T22:52:48.255Z,4.20
2022-08-05T22:55:19.366Z,4.13
2022-08-05T22:57:49.270Z,4.80
2022-08-05T23:00:20.773Z,4.63
2022-08-05T23:02:52.155Z,4.03
2022-08-05T23:05:22.223Z,4.30
2022-08-05T23:07:51.062Z,4.07
2022-08-05T23:10:20.828Z,4.57
2022-08-05T23:12:54.361Z,4.03
2022-08-05T23:15:29.057Z,3.90
2022-08-05T23:18:03.409Z,4.23
2022-08-05T23:20:37.311Z,3.80
2022-08-05T23:23:08.149Z,3.73
2022-08-05T23:25:51.365Z,4.00
2022-08-05T23:28:22.912Z,3.90
2022-08-05T23:30:53.712Z,3.83
2022-08-05T23:33:26.346Z,3.70
2022-08-05T23:36:13.621Z,4.10
2022-08-05T23:38:43.505Z,4.20
2022-08-05T23:41:12.792Z,4.07
2022-08-05T23:44:04.344Z,3.80
2022-08-05T23:46:29.759Z,3.87
2022-08-05T23:49:01.915Z,4.10
2022-08-05T23:52:02.084Z,3.77
2022-08-05T23:54:38.360Z,3.83
2022-08-05T23:57:07.642Z,4.03
